EGKKTAPA

Guest
Details From EGKK - London Gatwick
To TAPA - Antigua - V C Bird Intl
Flight Number -
Tags Generated
Created
Modified
Stats Distance 3,545 nm / 6,566 km
Max Altitude 0 ft / 0 m
Waypoints 4
Social Downloads 7
Likes 0
Share VATSIM

Download

Looking for another format? Having issues loading an existing format? Contact us
Advertisement - Login to hide

Notes

Generated

Route

EGKK RIDGI ANU52 TAPA

ID Type Via Altitude Latitude Longitude Leg Dist Tot Dist Heading (true) Name
O EGKK APT - 0 ft / 0 m 51.14691˚ -0.21257˚ - 0 nm - -
RIDGI FIX - 0 ft / 0 m 50.27083˚ -5.99139˚ 225 nm 225 nm 259° / 254° -
ANU52 FIX - 0 ft / 0 m 17.28189˚ -61.66863˚ 3307 nm 3533 nm 254° / 220° -
O TAPA APT - 0 ft / 0 m 17.13024˚ -61.80367˚ 11 nm 3545 nm 220° / 220° -

Altitude Profile

Advertisement - Login to hide

Weather


0- 5 10 15 20 25 30 35+ Temperature / ° C

Clouds and Precipitation
Forecast for 2018-05-25 18:00 UTC. Updated 5 hours ago

Ground ~20,000 ft ~40,000 ft Winds

EGKK

Details ICAO EGKK (LGW)
Name London Gatwick
Region United Kingdom
Timezone Europe/London (UTC+1.0)
Stats Elevation 196 ft / 60 m (AMSL)
Location 51.148753° -0.192472°
Runways 2
Magnetic Variation 0.367° W

METAR

EGKK 252220Z 07005KT 4000 HZ BKN028 15/14 Q1019

Decode

TAF

TAF EGKK 251659Z 2518/2624 VRB04KT 9999 FEW030 BECMG 2518/2521 8000 TEMPO 2521/2604 4000 HZ BECMG 2601/2604 04010KT PROB30 2601/2605 BKN003 PROB40 TEMPO 2605/2611 4000 +SHRA BKN008 BKN040CB TEMPO 2616/2624 06015G25KT PROB40 TEMPO 2618/2624 4000 +SHRA TSRA BKN014 BKN040CB

Decode

Departure Runways

ID Width Length Bearing (true) Bearing (mag) Surface Threshold Offset Overrun Length
08L 148 ft / 45 m 8,377 ft / 2,553 m 77.69° 78.06° Asphalt 1,053 ft / 321 m 0 ft / 0 m
08R 148 ft / 45 m 10,341 ft / 3,152 m 77.59° 77.96° Asphalt 1,289 ft / 393 m 0 ft / 0 m
26L 148 ft / 45 m 10,341 ft / 3,152 m 257.63° 258.00° Asphalt 879 ft / 268 m 600 ft / 183 m
26R 148 ft / 45 m 8,377 ft / 2,553 m 257.71° 258.08° Asphalt 1,365 ft / 416 m 0 ft / 0 m

TAPA

Details ICAO TAPA (ANU)
Name Antigua - V C Bird Intl
Region Antigua and Barbuda
Timezone America/Antigua (UTC-4.0)
Stats Elevation 62 ft / 19 m (AMSL)
Location 17.136737° -61.792662°
Runways 1
Magnetic Variation 14.777° W

METAR

TAPA 252200Z 10009KT 9999 SCT020 27/21 Q1015 NOSIG

Decode

TAF

TAF TAPA 251100Z 2512/2612 10010KT 9999 SCT020 PROB30 TEMPO 2601/2611 SHRA

Decode

Destination Runways

ID Width Length Bearing (true) Bearing (mag) Surface Threshold Offset Overrun Length
07 148 ft / 45 m 9,022 ft / 2,750 m 58.28° 73.06° Asphalt 656 ft / 200 m 0 ft / 0 m
25 148 ft / 45 m 9,022 ft / 2,750 m 238.29° 253.07° Asphalt 0 ft / 0 m 0 ft / 0 m

Popular Alternatives